createdAt,value
2018-05-18T00:00:45.718Z,9.10
2018-05-18T00:03:13.195Z,9.10
2018-05-18T00:05:40.684Z,9.10
2018-05-18T00:08:08.936Z,9.00
2018-05-18T00:10:36.447Z,9.00
2018-05-18T00:13:03.927Z,9.00
2018-05-18T00:15:31.443Z,8.90
2018-05-18T00:17:59.681Z,8.90
2018-05-18T00:20:27.181Z,8.90
2018-05-18T00:22:54.662Z,8.90
2018-05-18T00:25:22.143Z,8.80
2018-05-18T00:27:49.636Z,8.80
2018-05-18T00:30:17.126Z,8.80
2018-05-18T00:32:45.387Z,8.70
2018-05-18T00:35:13.626Z,8.70
2018-05-18T00:37:41.136Z,8.70
2018-05-18T00:40:09.387Z,8.70
2018-05-18T00:42:36.884Z,8.60
2018-05-18T00:45:04.362Z,8.60
2018-05-18T00:47:31.863Z,8.60
2018-05-18T00:49:59.341Z,8.70
2018-05-18T00:52:27.614Z,8.60
2018-05-18T00:54:55.850Z,8.50
2018-05-18T00:57:23.361Z,8.50
2018-05-18T00:59:50.833Z,8.50
2018-05-18T01:02:18.307Z,8.60
2018-05-18T01:04:45.802Z,8.50
2018-05-18T01:07:13.283Z,8.40
2018-05-18T01:09:41.548Z,8.40
2018-05-18T01:12:09.031Z,8.40
2018-05-18T01:14:37.289Z,8.40
2018-05-18T01:17:05.528Z,8.30
2018-05-18T01:19:33.031Z,8.30
2018-05-18T01:22:01.286Z,8.20
2018-05-18T01:24:28.784Z,8.20
2018-05-18T01:26:56.266Z,8.20
2018-05-18T01:29:23.759Z,8.20
2018-05-18T01:31:51.245Z,8.20
2018-05-18T01:34:19.508Z,8.00
2018-05-18T01:36:48.160Z,8.00
2018-05-18T01:39:15.654Z,8.00
2018-05-18T01:41:43.134Z,8.00
2018-05-18T01:44:11.389Z,7.80
2018-05-18T01:46:38.872Z,7.80
2018-05-18T01:49:06.385Z,7.80
2018-05-18T01:51:34.631Z,7.90
2018-05-18T01:54:02.132Z,7.90
2018-05-18T01:56:29.621Z,7.90
2018-05-18T01:58:57.971Z,7.80
2018-05-18T02:01:25.471Z,7.80
2018-05-18T02:03:52.951Z,7.80
2018-05-18T02:06:20.451Z,7.80
2018-05-18T02:08:47.947Z,7.80
2018-05-18T02:11:15.446Z,7.70
2018-05-18T02:13:42.918Z,7.70
2018-05-18T02:16:10.419Z,7.60
2018-05-18T02:18:37.911Z,7.70
2018-05-18T02:21:05.415Z,7.80
2018-05-18T02:23:32.891Z,7.70
2018-05-18T02:26:00.391Z,7.60
2018-05-18T02:28:27.865Z,7.50
2018-05-18T02:30:55.388Z,7.60
2018-05-18T02:33:22.915Z,7.60
2018-05-18T02:35:51.180Z,7.60
2018-05-18T02:38:18.708Z,7.60
2018-05-18T02:40:46.206Z,7.60
2018-05-18T02:43:14.492Z,7.50
2018-05-18T02:45:41.973Z,7.50
2018-05-18T02:48:09.482Z,7.50
2018-05-18T02:50:36.982Z,7.40
2018-05-18T02:53:04.464Z,7.40
2018-05-18T02:55:31.979Z,7.40
2018-05-18T02:58:00.219Z,7.30
2018-05-18T03:00:27.699Z,7.20
2018-05-18T03:02:55.199Z,7.30
2018-05-18T03:05:22.691Z,7.30
2018-05-18T03:07:50.201Z,7.20
2018-05-18T03:10:18.439Z,7.20
2018-05-18T03:12:45.939Z,7.20
2018-05-18T03:15:13.517Z,7.30
2018-05-18T03:17:41.014Z,7.20
2018-05-18T03:20:08.488Z,7.20
2018-05-18T03:22:35.989Z,7.20
2018-05-18T03:25:03.469Z,7.10
2018-05-18T03:27:30.983Z,7.10
2018-05-18T03:29:59.224Z,7.20
2018-05-18T03:32:26.729Z,7.10
2018-05-18T03:34:54.231Z,7.20
2018-05-18T03:37:21.746Z,7.10
2018-05-18T03:39:49.247Z,7.10
2018-05-18T03:42:16.791Z,7.00
2018-05-18T03:44:44.283Z,7.00
2018-05-18T03:47:11.763Z,7.00
2018-05-18T03:49:39.259Z,6.90
2018-05-18T03:52:06.742Z,7.00
2018-05-18T03:54:34.235Z,7.00
2018-05-18T03:57:01.716Z,6.90
2018-05-18T03:59:29.226Z,7.00
2018-05-18T04:02:08.406Z,6.90
2018-05-18T04:04:47.899Z,6.90
2018-05-18T04:07:27.223Z,6.90
2018-05-18T04:09:54.720Z,6.90
2018-05-18T04:12:22.198Z,6.90
2018-05-18T04:14:50.462Z,7.00
2018-05-18T04:17:18.723Z,7.10
2018-05-18T04:19:46.191Z,7.10
2018-05-18T04:22:13.724Z,7.10
2018-05-18T04:24:41.192Z,7.00
2018-05-18T04:27:08.733Z,7.10
2018-05-18T04:29:36.235Z,7.10
2018-05-18T04:32:04.505Z,7.30
2018-05-18T04:34:31.976Z,7.20
2018-05-18T04:37:00.263Z,7.40
2018-05-18T04:39:27.745Z,7.40
2018-05-18T04:41:55.243Z,7.40
2018-05-18T04:44:22.715Z,7.50
2018-05-18T04:46:50.210Z,7.50
2018-05-18T04:49:17.776Z,7.50
2018-05-18T04:51:45.280Z,7.60
2018-05-18T04:54:12.778Z,7.60
2018-05-18T04:56:40.268Z,7.60
2018-05-18T04:59:07.784Z,7.70
2018-05-18T05:01:36.024Z,7.80
2018-05-18T05:04:03.617Z,7.80
2018-05-18T05:06:31.867Z,8.00
2018-05-18T05:08:59.370Z,8.00
2018-05-18T05:11:26.863Z,8.10
2018-05-18T05:13:54.348Z,8.20
2018-05-18T05:16:21.861Z,8.20
2018-05-18T05:18:49.340Z,8.30
2018-05-18T05:21:16.831Z,8.30
2018-05-18T05:23:44.378Z,8.30
2018-05-18T05:26:11.822Z,8.40
2018-05-18T05:28:39.297Z,8.50
2018-05-18T05:31:06.859Z,8.50
2018-05-18T05:33:34.355Z,8.50
2018-05-18T05:36:02.701Z,8.90
2018-05-18T05:38:30.184Z,8.80
2018-05-18T05:40:58.443Z,8.80
2018-05-18T05:43:25.948Z,8.80
2018-05-18T05:45:53.441Z,8.90
2018-05-18T05:48:20.915Z,9.00
2018-05-18T05:50:48.415Z,9.10
2018-05-18T05:53:15.901Z,9.20
2018-05-18T05:55:43.463Z,9.50
2018-05-18T05:58:10.936Z,9.50
2018-05-18T06:00:38.760Z,9.50
2018-05-18T06:03:06.290Z,9.60
2018-05-18T06:05:34.576Z,10.10
2018-05-18T06:08:02.832Z,10.10
2018-05-18T06:10:30.317Z,10.00
2018-05-18T06:12:58.586Z,10.60
2018-05-18T06:15:26.862Z,10.80
2018-05-18T06:17:55.140Z,11.10
2018-05-18T06:20:23.404Z,11.30
2018-05-18T06:22:50.920Z,11.30
2018-05-18T06:25:18.411Z,11.40
2018-05-18T06:27:45.916Z,11.40
2018-05-18T06:30:13.400Z,11.50
2018-05-18T06:32:40.992Z,11.70
2018-05-18T06:35:08.532Z,12.00
2018-05-18T06:37:36.575Z,12.20
2018-05-18T06:40:04.066Z,12.50
2018-05-18T06:42:31.611Z,12.60
2018-05-18T06:44:59.100Z,12.90
2018-05-18T06:47:26.637Z,13.80
2018-05-18T06:49:54.191Z,14.70
2018-05-18T06:52:21.738Z,15.80
2018-05-18T06:54:49.206Z,16.00
2018-05-18T06:57:16.723Z,16.40
2018-05-18T06:59:44.201Z,17.00
2018-05-18T07:02:11.819Z,18.30
2018-05-18T07:04:39.294Z,18.60
2018-05-18T07:07:07.551Z,19.20
2018-05-18T07:09:35.058Z,19.20
2018-05-18T07:12:02.847Z,19.80
2018-05-18T07:14:30.359Z,19.30
2018-05-18T07:16:58.727Z,19.80
2018-05-18T07:19:26.228Z,19.70
2018-05-18T07:21:54.439Z,19.40
2018-05-18T07:24:21.999Z,18.80
2018-05-18T07:26:50.367Z,20.40
2018-05-18T07:29:17.893Z,20.40
2018-05-18T07:31:45.384Z,21.20
2018-05-18T07:34:15.121Z,20.80
2018-05-18T07:36:42.626Z,21.50
2018-05-18T07:39:10.140Z,22.10
2018-05-18T07:41:38.633Z,21.70
2018-05-18T07:44:06.921Z,22.30
2018-05-18T07:46:35.177Z,22.60
2018-05-18T07:49:03.458Z,22.80
2018-05-18T07:51:31.806Z,22.60
2018-05-18T07:53:59.311Z,22.60
2018-05-18T07:56:26.787Z,22.20
2018-05-18T07:58:54.337Z,22.40
2018-05-18T08:01:21.835Z,23.20
2018-05-18T08:03:49.359Z,23.40
2018-05-18T08:06:17.819Z,24.00
2018-05-18T08:08:46.068Z,24.10
2018-05-18T08:11:13.582Z,24.10
2018-05-18T08:13:41.067Z,23.00
2018-05-18T08:16:08.571Z,22.60
2018-05-18T08:18:36.823Z,23.30
2018-05-18T08:21:04.330Z,23.30
2018-05-18T08:23:41.364Z,23.70
2018-05-18T08:26:09.636Z,23.60
2018-05-18T08:28:49.184Z,24.80
2018-05-18T08:31:16.697Z,24.50
2018-05-18T08:33:44.272Z,23.90
2018-05-18T08:36:12.638Z,23.40
2018-05-18T08:38:40.122Z,23.40
2018-05-18T08:41:07.627Z,24.30
2018-05-18T08:43:35.982Z,25.00
2018-05-18T08:46:03.498Z,24.90
2018-05-18T08:48:30.996Z,26.40
2018-05-18T08:50:58.557Z,27.30
2018-05-18T08:53:26.056Z,27.40
2018-05-18T08:55:54.315Z,27.40
2018-05-18T08:58:21.856Z,27.30
2018-05-18T09:00:49.366Z,27.40
2018-05-18T09:03:16.892Z,28.00
2018-05-18T09:05:44.400Z,27.80
2018-05-18T09:08:11.883Z,28.30
2018-05-18T09:10:39.386Z,28.90
2018-05-18T09:13:07.662Z,28.60
2018-05-18T09:15:35.153Z,28.60
2018-05-18T09:18:02.660Z,29.20
2018-05-18T09:20:30.195Z,28.30
2018-05-18T09:22:57.700Z,29.00
2018-05-18T09:25:25.983Z,27.30
2018-05-18T09:27:54.552Z,26.50
2018-05-18T09:30:22.160Z,26.50
2018-05-18T09:32:49.568Z,27.20
2018-05-18T09:35:17.843Z,29.30
2018-05-18T09:37:45.326Z,29.20
2018-05-18T09:40:13.051Z,30.80
2018-05-18T09:42:41.304Z,29.70
2018-05-18T09:45:08.852Z,29.60
2018-05-18T09:47:37.091Z,31.30
2018-05-18T09:50:05.359Z,30.60
2018-05-18T09:52:33.623Z,31.20
2018-05-18T09:55:01.171Z,31.20
2018-05-18T09:57:28.624Z,30.60
2018-05-18T09:59:56.095Z,32.00
2018-05-18T10:02:23.605Z,32.60
2018-05-18T10:04:51.076Z,32.80
2018-05-18T10:07:18.577Z,32.40
2018-05-18T10:09:46.052Z,31.90
2018-05-18T10:12:14.336Z,30.80
2018-05-18T10:14:42.590Z,29.20
2018-05-18T10:17:10.875Z,29.00
2018-05-18T10:19:38.347Z,29.00
2018-05-18T10:22:06.620Z,30.80
2018-05-18T10:24:34.860Z,31.60
2018-05-18T10:27:02.470Z,31.60
2018-05-18T10:29:29.846Z,31.90
2018-05-18T10:31:57.364Z,29.60
2018-05-18T10:34:24.838Z,28.90
2018-05-18T10:36:53.114Z,31.10
2018-05-18T10:39:21.372Z,29.40
2018-05-18T10:41:48.859Z,29.30
2018-05-18T10:44:17.150Z,27.80
2018-05-18T10:46:44.627Z,27.70
2018-05-18T10:49:12.170Z,28.40
2018-05-18T10:51:39.674Z,28.70
2018-05-18T10:54:07.217Z,28.10
2018-05-18T10:56:34.691Z,28.10
2018-05-18T10:59:02.232Z,29.40
2018-05-18T11:01:31.646Z,29.10
2018-05-18T11:03:59.190Z,28.50
2018-05-18T11:06:26.693Z,27.10
2018-05-18T11:08:54.954Z,26.00
2018-05-18T11:11:22.443Z,26.00
2018-05-18T11:13:50.736Z,26.40
2018-05-18T11:16:18.236Z,26.40
2018-05-18T11:18:45.765Z,26.00
2018-05-18T11:21:13.275Z,25.50
2018-05-18T11:23:40.755Z,25.10
2018-05-18T11:26:09.017Z,24.80
2018-05-18T11:28:37.382Z,24.70
2018-05-18T11:31:04.864Z,24.50
2018-05-18T11:33:33.143Z,24.30
2018-05-18T11:36:01.384Z,24.40
2018-05-18T11:38:28.886Z,24.30
2018-05-18T11:40:57.130Z,23.80
2018-05-18T11:43:24.655Z,23.80
2018-05-18T11:45:52.132Z,23.80
2018-05-18T11:48:19.652Z,23.60
2018-05-18T11:50:47.163Z,23.20
2018-05-18T11:53:16.140Z,22.80
2018-05-18T11:55:43.671Z,22.80
2018-05-18T11:58:11.205Z,22.70
2018-05-18T12:00:39.508Z,22.30
2018-05-18T12:03:07.006Z,22.30
2018-05-18T12:05:34.491Z,22.70
2018-05-18T12:08:02.741Z,22.60
2018-05-18T12:10:30.232Z,22.50
2018-05-18T12:12:58.542Z,22.90
2018-05-18T12:15:26.043Z,22.80
2018-05-18T12:17:53.523Z,22.90
2018-05-18T12:20:21.793Z,23.00
2018-05-18T12:22:50.071Z,22.40
2018-05-18T12:25:18.343Z,22.10
2018-05-18T12:27:46.606Z,22.20
2018-05-18T12:30:14.139Z,22.20
2018-05-18T12:32:41.631Z,22.30
2018-05-18T12:35:09.112Z,22.40
2018-05-18T12:37:36.627Z,22.60
2018-05-18T12:40:04.127Z,22.60
2018-05-18T12:42:32.420Z,21.90
2018-05-18T12:44:59.935Z,21.80
2018-05-18T12:47:27.444Z,21.60
2018-05-18T12:49:54.927Z,21.80
2018-05-18T12:52:22.439Z,21.90
2018-05-18T12:54:50.672Z,22.70
2018-05-18T12:57:18.154Z,22.70
2018-05-18T12:59:45.652Z,22.50
2018-05-18T13:02:13.139Z,22.80
2018-05-18T13:04:40.638Z,23.10
2018-05-18T13:07:08.110Z,23.10
2018-05-18T13:09:36.392Z,22.50
2018-05-18T13:12:04.664Z,22.40
2018-05-18T13:14:33.419Z,22.50
2018-05-18T13:17:00.938Z,22.50
2018-05-18T13:19:28.433Z,22.70
2018-05-18T13:21:55.941Z,22.70
2018-05-18T13:24:24.213Z,22.60
2018-05-18T13:26:52.463Z,22.80
2018-05-18T13:29:19.959Z,22.80
2018-05-18T13:31:47.506Z,23.00
2018-05-18T13:34:15.799Z,22.40
2018-05-18T13:36:43.314Z,22.40
2018-05-18T13:39:10.803Z,22.40
2018-05-18T13:41:39.055Z,22.70
2018-05-18T13:44:06.563Z,22.70
2018-05-18T13:46:34.051Z,22.90
2018-05-18T13:49:01.547Z,22.80
2018-05-18T13:51:29.805Z,22.40
2018-05-18T13:53:57.327Z,22.30
2018-05-18T13:56:24.838Z,22.50
2018-05-18T13:58:53.096Z,22.30
2018-05-18T14:01:20.603Z,22.30
2018-05-18T14:03:49.014Z,22.10
2018-05-18T14:06:16.531Z,22.20
2018-05-18T14:08:44.780Z,22.20
2018-05-18T14:11:13.050Z,22.20
2018-05-18T14:13:40.544Z,22.20
2018-05-18T14:16:08.806Z,22.50
2018-05-18T14:18:37.065Z,22.50
2018-05-18T14:21:04.582Z,22.50
2018-05-18T14:23:32.065Z,22.30
2018-05-18T14:25:59.540Z,21.80
2018-05-18T14:28:27.043Z,21.50
2018-05-18T14:30:54.552Z,21.30
2018-05-18T14:33:22.098Z,21.20
2018-05-18T14:35:49.583Z,21.00
2018-05-18T14:38:17.059Z,21.10
2018-05-18T14:40:45.299Z,21.70
2018-05-18T14:43:12.847Z,21.70
2018-05-18T14:45:40.294Z,21.80
2018-05-18T14:48:07.875Z,21.70
2018-05-18T14:50:36.070Z,20.90
2018-05-18T14:53:03.580Z,20.80
2018-05-18T14:55:31.068Z,20.90
2018-05-18T14:57:58.571Z,21.30
2018-05-18T15:00:26.813Z,21.40
2018-05-18T15:02:55.827Z,21.30
2018-05-18T15:05:24.098Z,21.30
2018-05-18T15:07:52.386Z,21.30
2018-05-18T15:10:20.653Z,21.30
2018-05-18T15:12:48.167Z,21.20
2018-05-18T15:15:15.651Z,21.30
2018-05-18T15:17:43.193Z,21.30
2018-05-18T15:20:10.674Z,21.30
2018-05-18T15:22:38.155Z,21.30
2018-05-18T15:25:06.425Z,21.20
2018-05-18T15:27:33.906Z,21.20
2018-05-18T15:30:01.404Z,21.30
2018-05-18T15:32:28.911Z,21.40
2018-05-18T15:34:57.183Z,21.40
2018-05-18T15:37:25.494Z,21.40
2018-05-18T15:39:52.953Z,21.40
2018-05-18T15:42:20.442Z,21.50
2018-05-18T15:44:47.944Z,21.30
2018-05-18T15:47:16.193Z,21.40
2018-05-18T15:49:44.469Z,21.40
2018-05-18T15:52:11.961Z,21.40
2018-05-18T15:54:40.241Z,21.50
2018-05-18T15:57:08.529Z,21.20
2018-05-18T15:59:36.048Z,21.10
2018-05-18T16:02:03.527Z,20.90
2018-05-18T16:04:31.808Z,21.00
2018-05-18T16:07:00.085Z,21.00
2018-05-18T16:09:28.340Z,20.90
2018-05-18T16:11:55.853Z,20.80
2018-05-18T16:14:23.340Z,20.70
2018-05-18T16:16:50.847Z,20.40
2018-05-18T16:19:18.339Z,20.20
2018-05-18T16:21:45.872Z,20.20
2018-05-18T16:24:13.345Z,20.20
2018-05-18T16:26:40.831Z,20.30
2018-05-18T16:29:08.344Z,20.20
2018-05-18T16:31:35.823Z,20.00
2018-05-18T16:34:03.340Z,19.80
2018-05-18T16:36:31.585Z,19.60
2018-05-18T16:38:59.094Z,19.60
2018-05-18T16:41:26.572Z,19.60
2018-05-18T16:43:54.103Z,19.60
2018-05-18T16:46:22.339Z,19.40
2018-05-18T16:48:49.878Z,19.30
2018-05-18T16:51:17.376Z,19.40
2018-05-18T16:53:44.871Z,19.50
2018-05-18T16:56:12.374Z,19.40
2018-05-18T16:58:39.857Z,19.20
2018-05-18T17:01:07.377Z,19.20
2018-05-18T17:03:34.857Z,19.10
2018-05-18T17:06:02.379Z,19.00
2018-05-18T17:08:29.929Z,18.90
2018-05-18T17:10:57.457Z,18.80
2018-05-18T17:13:24.944Z,18.80
2018-05-18T17:15:52.463Z,18.70
2018-05-18T17:18:19.945Z,18.70
2018-05-18T17:20:48.191Z,18.40
2018-05-18T17:23:15.702Z,18.40
2018-05-18T17:25:43.258Z,18.20
2018-05-18T17:28:10.693Z,18.20
2018-05-18T17:30:38.939Z,18.20
2018-05-18T17:33:06.538Z,18.20
2018-05-18T17:35:33.957Z,18.10
2018-05-18T17:38:01.437Z,18.00
2018-05-18T17:40:28.951Z,17.90
2018-05-18T17:42:56.508Z,17.70
2018-05-18T17:45:24.033Z,17.70
2018-05-18T17:47:52.324Z,17.50
2018-05-18T17:50:19.834Z,17.50
2018-05-18T17:52:47.306Z,17.30
2018-05-18T17:55:14.838Z,17.30
2018-05-18T17:57:42.323Z,17.20
2018-05-18T18:00:09.849Z,17.10
2018-05-18T18:02:37.415Z,16.90
2018-05-18T18:05:04.925Z,16.80
2018-05-18T18:07:33.340Z,16.70
2018-05-18T18:10:00.910Z,16.70
2018-05-18T18:12:28.424Z,16.90
2018-05-18T18:14:56.668Z,16.60
2018-05-18T18:17:24.181Z,16.60
2018-05-18T18:19:51.665Z,16.40
2018-05-18T18:22:19.236Z,16.30
2018-05-18T18:24:46.691Z,16.10
2018-05-18T18:27:14.213Z,16.10
2018-05-18T18:29:41.687Z,16.00
2018-05-18T18:32:09.203Z,15.80
2018-05-18T18:34:37.475Z,15.60
2018-05-18T18:37:04.979Z,15.60
2018-05-18T18:39:32.477Z,15.60
2018-05-18T18:42:00.070Z,15.50
2018-05-18T18:44:27.485Z,15.40
2018-05-18T18:46:55.090Z,15.40
2018-05-18T18:49:22.535Z,15.30
2018-05-18T18:51:50.780Z,15.10
2018-05-18T18:54:18.281Z,15.10
2018-05-18T18:56:45.804Z,15.10
2018-05-18T18:59:13.308Z,14.90
2018-05-18T19:01:40.799Z,14.90
2018-05-18T19:04:08.308Z,14.80
2018-05-18T19:06:36.553Z,14.70
2018-05-18T19:09:04.991Z,14.70
2018-05-18T19:11:33.267Z,14.60
2018-05-18T19:14:00.806Z,14.50
2018-05-18T19:16:29.054Z,14.40
2018-05-18T19:18:56.541Z,14.30
2018-05-18T19:21:24.834Z,14.30
2018-05-18T19:23:52.335Z,14.30
2018-05-18T19:26:19.855Z,14.20
2018-05-18T19:28:47.343Z,14.10
2018-05-18T19:31:14.858Z,14.00
2018-05-18T19:33:43.111Z,13.80
2018-05-18T19:36:11.400Z,13.70
2018-05-18T19:38:39.671Z,13.80
2018-05-18T19:41:07.948Z,13.70
2018-05-18T19:43:36.205Z,13.60
2018-05-18T19:46:03.735Z,13.60
2018-05-18T19:48:31.257Z,13.50
2018-05-18T19:50:59.548Z,13.40
2018-05-18T19:53:27.035Z,13.30
2018-05-18T19:55:54.544Z,13.40
2018-05-18T19:58:22.831Z,13.30
2018-05-18T20:00:51.088Z,13.20
2018-05-18T20:03:18.608Z,13.20
2018-05-18T20:05:46.110Z,13.20
2018-05-18T20:08:14.401Z,13.10
2018-05-18T20:10:42.665Z,13.00
2018-05-18T20:13:10.949Z,13.00
2018-05-18T20:15:39.204Z,13.00
2018-05-18T20:18:07.451Z,13.00
2018-05-18T20:20:34.952Z,12.90
2018-05-18T20:23:03.269Z,12.80
2018-05-18T20:25:30.798Z,12.70
2018-05-18T20:27:59.055Z,12.70
2018-05-18T20:30:26.572Z,12.70
2018-05-18T20:32:54.057Z,12.70
2018-05-18T20:35:21.590Z,12.90
2018-05-18T20:37:50.058Z,12.80
2018-05-18T20:40:17.570Z,12.90
2018-05-18T20:42:45.051Z,12.90
2018-05-18T20:45:13.332Z,12.80
2018-05-18T20:47:41.597Z,12.80
2018-05-18T20:50:09.111Z,12.80
2018-05-18T20:52:36.611Z,12.80
2018-05-18T20:55:04.123Z,12.60
2018-05-18T20:57:31.649Z,12.60
2018-05-18T20:59:59.931Z,12.70
2018-05-18T21:02:27.425Z,12.70
2018-05-18T21:04:54.946Z,12.60
2018-05-18T21:07:23.208Z,12.50
2018-05-18T21:09:51.509Z,12.30
2018-05-18T21:12:18.997Z,12.30
2018-05-18T21:14:46.547Z,12.30
2018-05-18T21:17:14.029Z,12.30
2018-05-18T21:19:41.554Z,12.20
2018-05-18T21:22:09.068Z,12.10
2018-05-18T21:24:36.590Z,12.00
2018-05-18T21:27:04.102Z,12.00
2018-05-18T21:29:32.412Z,11.90
2018-05-18T21:31:59.896Z,11.90
2018-05-18T21:34:27.435Z,11.90
2018-05-18T21:36:55.412Z,11.90
2018-05-18T21:39:22.905Z,12.00
2018-05-18T21:41:51.319Z,11.90
2018-05-18T21:44:19.587Z,11.80
2018-05-18T21:46:47.856Z,11.90
2018-05-18T21:49:15.446Z,11.90
2018-05-18T21:51:42.943Z,11.90
2018-05-18T21:54:10.437Z,11.90
2018-05-18T21:56:37.975Z,11.90
2018-05-18T21:59:05.467Z,11.80
2018-05-18T22:01:33.763Z,11.70
2018-05-18T22:04:01.243Z,11.70
2018-05-18T22:06:28.774Z,11.70
2018-05-18T22:08:56.247Z,11.70
2018-05-18T22:11:23.765Z,11.70
2018-05-18T22:13:52.048Z,11.60
2018-05-18T22:16:19.540Z,11.60
2018-05-18T22:18:47.130Z,11.70
2018-05-18T22:21:14.632Z,11.70
2018-05-18T22:23:42.915Z,11.60
2018-05-18T22:26:11.163Z,11.40
2018-05-18T22:28:38.678Z,11.40
2018-05-18T22:31:06.159Z,11.30
2018-05-18T22:33:33.698Z,11.20
2018-05-18T22:36:01.212Z,11.10
2018-05-18T22:38:28.734Z,11.00
2018-05-18T22:40:56.234Z,11.00
2018-05-18T22:43:24.527Z,10.90
2018-05-18T22:45:52.815Z,11.00
2018-05-18T22:48:20.331Z,11.00
2018-05-18T22:50:47.853Z,10.90
2018-05-18T22:53:15.415Z,11.00
2018-05-18T22:55:43.010Z,10.90
2018-05-18T22:58:12.008Z,10.70
2018-05-18T23:00:40.279Z,10.90
2018-05-18T23:03:07.875Z,10.90
2018-05-18T23:05:36.160Z,10.80
2018-05-18T23:08:03.702Z,10.80
2018-05-18T23:10:31.973Z,10.90
2018-05-18T23:12:59.606Z,10.80
2018-05-18T23:15:27.091Z,11.00
2018-05-18T23:17:54.629Z,10.90
2018-05-18T23:20:22.202Z,10.80
2018-05-18T23:22:49.754Z,10.60
2018-05-18T23:25:17.238Z,10.70
2018-05-18T23:27:44.758Z,10.60
2018-05-18T23:30:12.315Z,10.50
2018-05-18T23:32:39.828Z,10.40
2018-05-18T23:35:08.097Z,10.30
2018-05-18T23:37:36.367Z,10.20
2018-05-18T23:40:04.652Z,10.30
2018-05-18T23:42:33.050Z,10.30
2018-05-18T23:45:01.354Z,10.20
2018-05-18T23:47:28.865Z,10.20
2018-05-18T23:49:57.160Z,10.40
2018-05-18T23:52:24.812Z,10.30
2018-05-18T23:54:53.111Z,10.40
2018-05-18T23:57:20.643Z,10.40
2018-05-18T23:59:48.263Z,10.40
